sensor_id;sensor_type;location;lat;lon;timestamp;temperature;humidity
78455;SHT31;67751;51.986;5.696;2024-02-16T00:00:37;13.4;74.8
78455;SHT31;67751;51.986;5.696;2024-02-16T00:03:08;13.4;75.4
78455;SHT31;67751;51.986;5.696;2024-02-16T00:05:38;13.4;75.2
78455;SHT31;67751;51.986;5.696;2024-02-16T00:08:10;13.4;75.6
78455;SHT31;67751;51.986;5.696;2024-02-16T00:10:40;13.4;75.6
78455;SHT31;67751;51.986;5.696;2024-02-16T00:13:10;13.4;75.7
78455;SHT31;67751;51.986;5.696;2024-02-16T00:15:40;13.4;75.7
78455;SHT31;67751;51.986;5.696;2024-02-16T00:18:12;13.4;75.7
78455;SHT31;67751;51.986;5.696;2024-02-16T00:20:42;13.4;75.4
78455;SHT31;67751;51.986;5.696;2024-02-16T00:23:11;13.4;75.5
78455;SHT31;67751;51.986;5.696;2024-02-16T00:25:41;13.3;75.2
78455;SHT31;67751;51.986;5.696;2024-02-16T00:28:11;13.3;74.8
78455;SHT31;67751;51.986;5.696;2024-02-16T00:30:42;13.3;75.6
78455;SHT31;67751;51.986;5.696;2024-02-16T00:33:12;13.3;75.5
78455;SHT31;67751;51.986;5.696;2024-02-16T00:35:41;13.3;75.5
78455;SHT31;67751;51.986;5.696;2024-02-16T00:38:13;13.3;75.3
78455;SHT31;67751;51.986;5.696;2024-02-16T00:40:42;13.3;75.1
78455;SHT31;67751;51.986;5.696;2024-02-16T00:43:12;13.2;74.6
78455;SHT31;67751;51.986;5.696;2024-02-16T00:45:43;13.2;74.7
78455;SHT31;67751;51.986;5.696;2024-02-16T00:48:16;13.2;75.0
78455;SHT31;67751;51.986;5.696;2024-02-16T00:50:45;13.2;75.1
78455;SHT31;67751;51.986;5.696;2024-02-16T00:53:15;13.2;75.2
78455;SHT31;67751;51.986;5.696;2024-02-16T00:55:46;13.2;75.3
78455;SHT31;67751;51.986;5.696;2024-02-16T00:58:16;13.2;75.1
78455;SHT31;67751;51.986;5.696;2024-02-16T01:00:47;13.2;75.3
78455;SHT31;67751;51.986;5.696;2024-02-16T01:03:16;13.2;75.7
78455;SHT31;67751;51.986;5.696;2024-02-16T01:05:46;13.2;75.7
78455;SHT31;67751;51.986;5.696;2024-02-16T01:08:16;13.2;75.6
78455;SHT31;67751;51.986;5.696;2024-02-16T01:10:45;13.1;75.6
78455;SHT31;67751;51.986;5.696;2024-02-16T01:13:15;13.1;75.5
78455;SHT31;67751;51.986;5.696;2024-02-16T01:15:47;13.1;75.5
78455;SHT31;67751;51.986;5.696;2024-02-16T01:18:17;13.1;75.4
78455;SHT31;67751;51.986;5.696;2024-02-16T01:20:47;13.1;74.6
78455;SHT31;67751;51.986;5.696;2024-02-16T01:23:16;13.1;74.9
78455;SHT31;67751;51.986;5.696;2024-02-16T01:25:46;13.1;75.5
78455;SHT31;67751;51.986;5.696;2024-02-16T01:28:16;13.1;75.6
78455;SHT31;67751;51.986;5.696;2024-02-16T01:30:45;13.1;75.2
78455;SHT31;67751;51.986;5.696;2024-02-16T01:33:15;13.1;75.2
78455;SHT31;67751;51.986;5.696;2024-02-16T01:35:44;13.0;75.1
78455;SHT31;67751;51.986;5.696;2024-02-16T01:38:17;13.0;75.3
78455;SHT31;67751;51.986;5.696;2024-02-16T01:40:50;13.0;75.2
78455;SHT31;67751;51.986;5.696;2024-02-16T01:43:21;13.0;75.5
78455;SHT31;67751;51.986;5.696;2024-02-16T01:45:51;13.0;74.7
78455;SHT31;67751;51.986;5.696;2024-02-16T01:48:20;13.0;74.9
78455;SHT31;67751;51.986;5.696;2024-02-16T01:50:51;13.0;74.6
78455;SHT31;67751;51.986;5.696;2024-02-16T01:53:24;13.0;75.2
78455;SHT31;67751;51.986;5.696;2024-02-16T01:55:55;12.9;75.3
78455;SHT31;67751;51.986;5.696;2024-02-16T01:58:24;12.9;75.2
78455;SHT31;67751;51.986;5.696;2024-02-16T02:00:55;12.9;75.2
78455;SHT31;67751;51.986;5.696;2024-02-16T02:03:25;12.9;75.4
78455;SHT31;67751;51.986;5.696;2024-02-16T02:05:54;12.9;75.4
78455;SHT31;67751;51.986;5.696;2024-02-16T02:08:25;12.9;75.3
78455;SHT31;67751;51.986;5.696;2024-02-16T02:10:55;12.9;74.7
78455;SHT31;67751;51.986;5.696;2024-02-16T02:13:25;12.9;75.3
78455;SHT31;67751;51.986;5.696;2024-02-16T02:15:55;12.9;75.2
78455;SHT31;67751;51.986;5.696;2024-02-16T02:18:25;12.9;74.8
78455;SHT31;67751;51.986;5.696;2024-02-16T02:20:55;12.9;75.4
78455;SHT31;67751;51.986;5.696;2024-02-16T02:23:25;12.9;75.5
78455;SHT31;67751;51.986;5.696;2024-02-16T02:25:54;12.9;75.3
78455;SHT31;67751;51.986;5.696;2024-02-16T02:28:24;12.9;75.2
78455;SHT31;67751;51.986;5.696;2024-02-16T02:30:53;12.8;74.7
78455;SHT31;67751;51.986;5.696;2024-02-16T02:33:23;12.8;75.3
78455;SHT31;67751;51.986;5.696;2024-02-16T02:35:55;12.8;75.1
78455;SHT31;67751;51.986;5.696;2024-02-16T02:38:24;12.8;75.7
78455;SHT31;67751;51.986;5.696;2024-02-16T02:40:54;12.8;76.1
78455;SHT31;67751;51.986;5.696;2024-02-16T02:43:26;12.8;75.3
78455;SHT31;67751;51.986;5.696;2024-02-16T02:45:56;12.8;75.2
78455;SHT31;67751;51.986;5.696;2024-02-16T02:48:25;12.8;75.1
78455;SHT31;67751;51.986;5.696;2024-02-16T02:50:55;12.8;75.7
78455;SHT31;67751;51.986;5.696;2024-02-16T02:53:28;12.8;75.3
78455;SHT31;67751;51.986;5.696;2024-02-16T02:55:58;12.8;75.6
78455;SHT31;67751;51.986;5.696;2024-02-16T02:58:27;12.8;75.6
78455;SHT31;67751;51.986;5.696;2024-02-16T03:00:57;12.8;76.0
78455;SHT31;67751;51.986;5.696;2024-02-16T03:03:27;12.8;76.1
78455;SHT31;67751;51.986;5.696;2024-02-16T03:05:56;12.8;76.2
78455;SHT31;67751;51.986;5.696;2024-02-16T03:08:26;12.8;76.4
78455;SHT31;67751;51.986;5.696;2024-02-16T03:10:56;12.8;76.3
78455;SHT31;67751;51.986;5.696;2024-02-16T03:13:28;12.9;76.2
78455;SHT31;67751;51.986;5.696;2024-02-16T03:15:57;12.9;76.5
78455;SHT31;67751;51.986;5.696;2024-02-16T03:18:29;12.9;75.7
78455;SHT31;67751;51.986;5.696;2024-02-16T03:20:59;12.9;75.8
78455;SHT31;67751;51.986;5.696;2024-02-16T03:23:29;12.9;76.3
78455;SHT31;67751;51.986;5.696;2024-02-16T03:25:58;12.9;75.8
78455;SHT31;67751;51.986;5.696;2024-02-16T03:28:28;12.9;76.2
78455;SHT31;67751;51.986;5.696;2024-02-16T03:30:57;12.9;76.1
78455;SHT31;67751;51.986;5.696;2024-02-16T03:33:27;13.0;75.8
78455;SHT31;67751;51.986;5.696;2024-02-16T03:35:57;13.0;75.7
78455;SHT31;67751;51.986;5.696;2024-02-16T03:38:27;13.0;75.1
78455;SHT31;67751;51.986;5.696;2024-02-16T03:40:57;13.0;75.3
78455;SHT31;67751;51.986;5.696;2024-02-16T03:43:27;12.9;75.4
78455;SHT31;67751;51.986;5.696;2024-02-16T03:45:56;12.9;75.6
78455;SHT31;67751;51.986;5.696;2024-02-16T03:48:26;12.9;75.4
78455;SHT31;67751;51.986;5.696;2024-02-16T03:50:55;12.9;75.3
78455;SHT31;67751;51.986;5.696;2024-02-16T03:53:26;12.9;75.2
78455;SHT31;67751;51.986;5.696;2024-02-16T03:55:55;12.9;75.4
78455;SHT31;67751;51.986;5.696;2024-02-16T03:58:26;12.9;75.5
78455;SHT31;67751;51.986;5.696;2024-02-16T04:00:56;12.9;75.3
78455;SHT31;67751;51.986;5.696;2024-02-16T04:03:27;12.9;75.3
78455;SHT31;67751;51.986;5.696;2024-02-16T04:05:57;12.9;75.6
78455;SHT31;67751;51.986;5.696;2024-02-16T04:08:27;12.9;75.0
78455;SHT31;67751;51.986;5.696;2024-02-16T04:10:58;12.9;75.4
78455;SHT31;67751;51.986;5.696;2024-02-16T04:13:30;12.9;75.3
78455;SHT31;67751;51.986;5.696;2024-02-16T04:16:00;12.9;75.4
78455;SHT31;67751;51.986;5.696;2024-02-16T04:18:29;12.9;75.3
78455;SHT31;67751;51.986;5.696;2024-02-16T04:20:59;12.9;75.1
78455;SHT31;67751;51.986;5.696;2024-02-16T04:23:28;12.8;74.9
78455;SHT31;67751;51.986;5.696;2024-02-16T04:26:00;12.8;75.4
78455;SHT31;67751;51.986;5.696;2024-02-16T04:28:31;12.8;75.1
78455;SHT31;67751;51.986;5.696;2024-02-16T04:31:01;12.8;75.4
78455;SHT31;67751;51.986;5.696;2024-02-16T04:33:31;12.8;75.5
78455;SHT31;67751;51.986;5.696;2024-02-16T04:36:00;12.8;75.6
78455;SHT31;67751;51.986;5.696;2024-02-16T04:38:31;12.8;74.7
78455;SHT31;67751;51.986;5.696;2024-02-16T04:41:01;12.8;75.0
78455;SHT31;67751;51.986;5.696;2024-02-16T04:43:31;12.8;74.7
78455;SHT31;67751;51.986;5.696;2024-02-16T04:46:00;12.8;74.7
78455;SHT31;67751;51.986;5.696;2024-02-16T04:48:30;12.8;75.3
78455;SHT31;67751;51.986;5.696;2024-02-16T04:51:01;12.8;75.2
78455;SHT31;67751;51.986;5.696;2024-02-16T04:53:31;12.8;75.6
78455;SHT31;67751;51.986;5.696;2024-02-16T04:56:00;12.8;75.5
78455;SHT31;67751;51.986;5.696;2024-02-16T04:58:30;12.8;74.4
78455;SHT31;67751;51.986;5.696;2024-02-16T05:01:00;12.8;75.2
78455;SHT31;67751;51.986;5.696;2024-02-16T05:03:30;12.9;75.4
78455;SHT31;67751;51.986;5.696;2024-02-16T05:06:00;12.9;75.8
78455;SHT31;67751;51.986;5.696;2024-02-16T05:08:29;12.9;75.2
78455;SHT31;67751;51.986;5.696;2024-02-16T05:11:00;12.9;75.3
78455;SHT31;67751;51.986;5.696;2024-02-16T05:13:29;12.9;75.7
78455;SHT31;67751;51.986;5.696;2024-02-16T05:15:59;12.9;74.8
78455;SHT31;67751;51.986;5.696;2024-02-16T05:18:30;12.9;75.1
78455;SHT31;67751;51.986;5.696;2024-02-16T05:21:00;12.9;74.6
78455;SHT31;67751;51.986;5.696;2024-02-16T05:23:29;12.9;73.8
78455;SHT31;67751;51.986;5.696;2024-02-16T05:25:59;12.9;75.2
78455;SHT31;67751;51.986;5.696;2024-02-16T05:28:28;12.9;75.2
78455;SHT31;67751;51.986;5.696;2024-02-16T05:31:12;12.9;74.9
78455;SHT31;67751;51.986;5.696;2024-02-16T05:33:40;13.0;75.2
78455;SHT31;67751;51.986;5.696;2024-02-16T05:36:10;13.0;74.9
78455;SHT31;67751;51.986;5.696;2024-02-16T05:38:39;13.0;75.3
78455;SHT31;67751;51.986;5.696;2024-02-16T05:41:11;13.0;74.9
78455;SHT31;67751;51.986;5.696;2024-02-16T05:43:42;13.0;74.7
78455;SHT31;67751;51.986;5.696;2024-02-16T05:46:14;13.0;74.6
78455;SHT31;67751;51.986;5.696;2024-02-16T05:48:44;13.0;74.7
78455;SHT31;67751;51.986;5.696;2024-02-16T05:51:14;13.0;75.2
78455;SHT31;67751;51.986;5.696;2024-02-16T05:53:44;13.0;74.8
78455;SHT31;67751;51.986;5.696;2024-02-16T05:56:16;13.0;75.7
78455;SHT31;67751;51.986;5.696;2024-02-16T05:58:46;13.0;75.0
78455;SHT31;67751;51.986;5.696;2024-02-16T06:01:17;13.0;75.0
78455;SHT31;67751;51.986;5.696;2024-02-16T06:03:47;13.0;75.2
78455;SHT31;67751;51.986;5.696;2024-02-16T06:06:16;13.0;74.6
78455;SHT31;67751;51.986;5.696;2024-02-16T06:08:46;13.0;74.6
78455;SHT31;67751;51.986;5.696;2024-02-16T06:11:15;13.0;74.6
78455;SHT31;67751;51.986;5.696;2024-02-16T06:13:45;13.0;75.0
78455;SHT31;67751;51.986;5.696;2024-02-16T06:16:14;13.0;74.8
78455;SHT31;67751;51.986;5.696;2024-02-16T06:18:44;13.0;75.2
78455;SHT31;67751;51.986;5.696;2024-02-16T06:21:13;13.0;75.1
78455;SHT31;67751;51.986;5.696;2024-02-16T06:23:43;13.1;75.0
78455;SHT31;67751;51.986;5.696;2024-02-16T06:26:14;13.1;75.4
78455;SHT31;67751;51.986;5.696;2024-02-16T06:28:44;13.1;75.4
78455;SHT31;67751;51.986;5.696;2024-02-16T06:31:14;13.1;75.6
78455;SHT31;67751;51.986;5.696;2024-02-16T06:33:46;13.1;75.0
78455;SHT31;67751;51.986;5.696;2024-02-16T06:36:15;13.1;75.7
78455;SHT31;67751;51.986;5.696;2024-02-16T06:38:45;13.1;75.3
78455;SHT31;67751;51.986;5.696;2024-02-16T06:41:14;13.1;75.8
78455;SHT31;67751;51.986;5.696;2024-02-16T06:43:44;13.1;75.8
78455;SHT31;67751;51.986;5.696;2024-02-16T06:46:13;13.1;75.4
78455;SHT31;67751;51.986;5.696;2024-02-16T06:48:43;13.1;75.7
78455;SHT31;67751;51.986;5.696;2024-02-16T06:51:12;13.1;75.6
78455;SHT31;67751;51.986;5.696;2024-02-16T06:53:44;13.2;75.8
78455;SHT31;67751;51.986;5.696;2024-02-16T06:56:15;13.2;75.4
78455;SHT31;67751;51.986;5.696;2024-02-16T06:58:46;13.2;76.0
78455;SHT31;67751;51.986;5.696;2024-02-16T07:01:16;13.2;75.6
78455;SHT31;67751;51.986;5.696;2024-02-16T07:03:46;13.2;75.2
78455;SHT31;67751;51.986;5.696;2024-02-16T07:06:15;13.2;75.3
78455;SHT31;67751;51.986;5.696;2024-02-16T07:08:45;13.2;75.3
78455;SHT31;67751;51.986;5.696;2024-02-16T07:11:15;13.2;74.9
78455;SHT31;67751;51.986;5.696;2024-02-16T07:13:48;13.2;75.5
78455;SHT31;67751;51.986;5.696;2024-02-16T07:16:17;13.2;75.3
78455;SHT31;67751;51.986;5.696;2024-02-16T07:18:47;13.3;75.2
78455;SHT31;67751;51.986;5.696;2024-02-16T07:21:17;13.3;75.3
78455;SHT31;67751;51.986;5.696;2024-02-16T07:23:48;13.3;75.1
78455;SHT31;67751;51.986;5.696;2024-02-16T07:26:18;13.3;75.5
78455;SHT31;67751;51.986;5.696;2024-02-16T07:28:48;13.3;75.0
78455;SHT31;67751;51.986;5.696;2024-02-16T07:31:18;13.3;75.2
78455;SHT31;67751;51.986;5.696;2024-02-16T07:33:47;13.3;74.9
78455;SHT31;67751;51.986;5.696;2024-02-16T07:36:17;13.3;74.9
78455;SHT31;67751;51.986;5.696;2024-02-16T07:38:47;13.3;75.1
78455;SHT31;67751;51.986;5.696;2024-02-16T07:41:16;13.3;75.3
78455;SHT31;67751;51.986;5.696;2024-02-16T07:43:46;13.3;75.1
78455;SHT31;67751;51.986;5.696;2024-02-16T07:46:15;13.3;75.5
78455;SHT31;67751;51.986;5.696;2024-02-16T07:48:45;13.3;75.4
78455;SHT31;67751;51.986;5.696;2024-02-16T07:51:15;13.3;75.7
78455;SHT31;67751;51.986;5.696;2024-02-16T07:53:44;13.3;75.7
78455;SHT31;67751;51.986;5.696;2024-02-16T07:56:14;13.3;75.7
78455;SHT31;67751;51.986;5.696;2024-02-16T07:58:47;13.3;76.1
78455;SHT31;67751;51.986;5.696;2024-02-16T08:01:17;13.3;75.9
78455;SHT31;67751;51.986;5.696;2024-02-16T08:03:46;13.4;76.0
78455;SHT31;67751;51.986;5.696;2024-02-16T08:06:16;13.4;75.9
78455;SHT31;67751;51.986;5.696;2024-02-16T08:08:48;13.4;75.9
78455;SHT31;67751;51.986;5.696;2024-02-16T08:11:18;13.4;76.0
78455;SHT31;67751;51.986;5.696;2024-02-16T08:13:47;13.4;75.7
78455;SHT31;67751;51.986;5.696;2024-02-16T08:16:17;13.4;76.0
78455;SHT31;67751;51.986;5.696;2024-02-16T08:18:49;13.5;76.0
78455;SHT31;67751;51.986;5.696;2024-02-16T08:21:19;13.5;76.3
78455;SHT31;67751;51.986;5.696;2024-02-16T08:23:48;13.5;76.2
78455;SHT31;67751;51.986;5.696;2024-02-16T08:26:20;13.5;76.2
78455;SHT31;67751;51.986;5.696;2024-02-16T08:28:49;13.5;76.5
78455;SHT31;67751;51.986;5.696;2024-02-16T08:31:19;13.5;76.8
78455;SHT31;67751;51.986;5.696;2024-02-16T08:33:49;13.5;76.7
78455;SHT31;67751;51.986;5.696;2024-02-16T08:36:21;13.6;76.6
78455;SHT31;67751;51.986;5.696;2024-02-16T08:38:55;13.6;76.7
78455;SHT31;67751;51.986;5.696;2024-02-16T08:41:25;13.6;76.6
78455;SHT31;67751;51.986;5.696;2024-02-16T08:43:54;13.6;76.3
78455;SHT31;67751;51.986;5.696;2024-02-16T08:46:24;13.7;76.5
78455;SHT31;67751;51.986;5.696;2024-02-16T08:48:54;13.7;76.5
78455;SHT31;67751;51.986;5.696;2024-02-16T08:51:24;13.7;76.7
78455;SHT31;67751;51.986;5.696;2024-02-16T08:53:54;13.7;76.4
78455;SHT31;67751;51.986;5.696;2024-02-16T08:56:23;13.8;76.7
78455;SHT31;67751;51.986;5.696;2024-02-16T08:58:53;13.8;76.8
78455;SHT31;67751;51.986;5.696;2024-02-16T09:01:31;13.8;77.0
78455;SHT31;67751;51.986;5.696;2024-02-16T09:04:02;13.9;76.5
78455;SHT31;67751;51.986;5.696;2024-02-16T09:06:31;13.9;76.4
78455;SHT31;67751;51.986;5.696;2024-02-16T09:09:03;13.9;76.6
78455;SHT31;67751;51.986;5.696;2024-02-16T09:11:34;13.9;76.4
78455;SHT31;67751;51.986;5.696;2024-02-16T09:14:04;14.0;76.5
78455;SHT31;67751;51.986;5.696;2024-02-16T09:16:35;14.0;76.5
78455;SHT31;67751;51.986;5.696;2024-02-16T09:19:06;14.0;76.3
78455;SHT31;67751;51.986;5.696;2024-02-16T09:21:35;14.1;76.2
78455;SHT31;67751;51.986;5.696;2024-02-16T09:24:05;14.1;76.0
78455;SHT31;67751;51.986;5.696;2024-02-16T09:26:40;14.1;76.4
78455;SHT31;67751;51.986;5.696;2024-02-16T09:29:09;14.2;76.5
78455;SHT31;67751;51.986;5.696;2024-02-16T09:31:39;14.2;75.9
78455;SHT31;67751;51.986;5.696;2024-02-16T09:34:09;14.2;76.0
78455;SHT31;67751;51.986;5.696;2024-02-16T09:36:39;14.2;75.9
78455;SHT31;67751;51.986;5.696;2024-02-16T09:39:08;14.3;76.2
78455;SHT31;67751;51.986;5.696;2024-02-16T09:41:41;14.3;76.7
78455;SHT31;67751;51.986;5.696;2024-02-16T09:44:11;14.3;76.3
78455;SHT31;67751;51.986;5.696;2024-02-16T09:46:41;14.3;76.5
78455;SHT31;67751;51.986;5.696;2024-02-16T09:49:11;14.3;76.7
78455;SHT31;67751;51.986;5.696;2024-02-16T09:51:41;14.4;76.5
78455;SHT31;67751;51.986;5.696;2024-02-16T09:54:10;14.4;76.9
78455;SHT31;67751;51.986;5.696;2024-02-16T09:56:41;14.4;76.8
78455;SHT31;67751;51.986;5.696;2024-02-16T09:59:12;14.4;76.9
78455;SHT31;67751;51.986;5.696;2024-02-16T10:01:43;14.4;76.9
78455;SHT31;67751;51.986;5.696;2024-02-16T10:04:13;14.4;76.9
78455;SHT31;67751;51.986;5.696;2024-02-16T10:06:49;14.4;77.1
78455;SHT31;67751;51.986;5.696;2024-02-16T10:09:27;14.4;76.9
78455;SHT31;67751;51.986;5.696;2024-02-16T10:12:00;14.4;76.4
78455;SHT31;67751;51.986;5.696;2024-02-16T10:14:29;14.4;76.4
78455;SHT31;67751;51.986;5.696;2024-02-16T10:17:04;14.4;76.6
78455;SHT31;67751;51.986;5.696;2024-02-16T10:19:36;14.4;76.6
78455;SHT31;67751;51.986;5.696;2024-02-16T10:22:08;14.4;76.1
78455;SHT31;67751;51.986;5.696;2024-02-16T10:24:39;14.4;76.3
78455;SHT31;67751;51.986;5.696;2024-02-16T10:27:15;14.4;76.4
78455;SHT31;67751;51.986;5.696;2024-02-16T10:29:47;14.5;76.3
78455;SHT31;67751;51.986;5.696;2024-02-16T10:32:19;14.5;76.3
78455;SHT31;67751;51.986;5.696;2024-02-16T10:34:51;14.5;76.7
78455;SHT31;67751;51.986;5.696;2024-02-16T10:37:22;14.5;76.9
78455;SHT31;67751;51.986;5.696;2024-02-16T10:39:56;14.5;76.4
78455;SHT31;67751;51.986;5.696;2024-02-16T10:42:27;14.5;76.8
78455;SHT31;67751;51.986;5.696;2024-02-16T10:44:57;14.5;76.9
78455;SHT31;67751;51.986;5.696;2024-02-16T10:47:27;14.5;77.3
78455;SHT31;67751;51.986;5.696;2024-02-16T10:49:57;14.5;76.9
78455;SHT31;67751;51.986;5.696;2024-02-16T10:52:29;14.5;76.9
78455;SHT31;67751;51.986;5.696;2024-02-16T10:55:00;14.5;77.2
78455;SHT31;67751;51.986;5.696;2024-02-16T10:57:31;14.5;76.6
78455;SHT31;67751;51.986;5.696;2024-02-16T11:00:09;14.5;77.0
78455;SHT31;67751;51.986;5.696;2024-02-16T11:03:02;14.5;77.3
78455;SHT31;67751;51.986;5.696;2024-02-16T11:05:36;14.5;77.5
78455;SHT31;67751;51.986;5.696;2024-02-16T11:08:14;14.5;77.6
78455;SHT31;67751;51.986;5.696;2024-02-16T11:10:57;14.5;77.7
78455;SHT31;67751;51.986;5.696;2024-02-16T11:13:28;14.5;77.7
78455;SHT31;67751;51.986;5.696;2024-02-16T11:16:02;14.5;78.0
78455;SHT31;67751;51.986;5.696;2024-02-16T11:18:37;14.5;78.1
78455;SHT31;67751;51.986;5.696;2024-02-16T11:21:11;14.5;78.1
78455;SHT31;67751;51.986;5.696;2024-02-16T11:23:42;14.5;78.2
78455;SHT31;67751;51.986;5.696;2024-02-16T11:26:13;14.5;78.4
78455;SHT31;67751;51.986;5.696;2024-02-16T11:28:43;14.4;78.4
78455;SHT31;67751;51.986;5.696;2024-02-16T11:31:12;14.4;78.6
78455;SHT31;67751;51.986;5.696;2024-02-16T11:33:45;14.3;78.8
78455;SHT31;67751;51.986;5.696;2024-02-16T11:36:16;14.3;79.0
78455;SHT31;67751;51.986;5.696;2024-02-16T11:38:47;14.3;79.3
78455;SHT31;67751;51.986;5.696;2024-02-16T11:41:16;14.2;79.6
78455;SHT31;67751;51.986;5.696;2024-02-16T11:43:48;14.2;79.7
78455;SHT31;67751;51.986;5.696;2024-02-16T11:46:20;14.2;80.0
78455;SHT31;67751;51.986;5.696;2024-02-16T11:49:03;14.2;80.1
78455;SHT31;67751;51.986;5.696;2024-02-16T11:51:30;14.2;80.1
78455;SHT31;67751;51.986;5.696;2024-02-16T11:54:00;14.2;80.1
78455;SHT31;67751;51.986;5.696;2024-02-16T11:56:30;14.1;80.1
78455;SHT31;67751;51.986;5.696;2024-02-16T11:59:00;14.1;80.2
78455;SHT31;67751;51.986;5.696;2024-02-16T12:01:30;14.2;80.2
78455;SHT31;67751;51.986;5.696;2024-02-16T12:04:01;14.2;80.2
78455;SHT31;67751;51.986;5.696;2024-02-16T12:06:31;14.2;80.1
78455;SHT31;67751;51.986;5.696;2024-02-16T12:09:03;14.2;80.3
78455;SHT31;67751;51.986;5.696;2024-02-16T12:11:33;14.2;80.3
78455;SHT31;67751;51.986;5.696;2024-02-16T12:14:03;14.2;80.2
78455;SHT31;67751;51.986;5.696;2024-02-16T12:16:32;14.2;80.2
78455;SHT31;67751;51.986;5.696;2024-02-16T12:19:06;14.2;80.1
78455;SHT31;67751;51.986;5.696;2024-02-16T12:21:36;14.2;80.2
78455;SHT31;67751;51.986;5.696;2024-02-16T12:24:08;14.2;79.9
78455;SHT31;67751;51.986;5.696;2024-02-16T12:26:38;14.2;79.9
78455;SHT31;67751;51.986;5.696;2024-02-16T12:29:08;14.3;79.8
78455;SHT31;67751;51.986;5.696;2024-02-16T12:31:41;14.3;79.8
78455;SHT31;67751;51.986;5.696;2024-02-16T12:34:11;14.3;79.7
78455;SHT31;67751;51.986;5.696;2024-02-16T12:36:42;14.3;79.6
78455;SHT31;67751;51.986;5.696;2024-02-16T12:39:12;14.3;79.6
78455;SHT31;67751;51.986;5.696;2024-02-16T12:41:45;14.3;79.5
78455;SHT31;67751;51.986;5.696;2024-02-16T12:44:16;14.2;79.6
78455;SHT31;67751;51.986;5.696;2024-02-16T12:46:45;14.2;79.7
78455;SHT31;67751;51.986;5.696;2024-02-16T12:49:15;14.2;79.8
78455;SHT31;67751;51.986;5.696;2024-02-16T12:51:49;14.2;79.9
78455;SHT31;67751;51.986;5.696;2024-02-16T12:54:19;14.2;79.9
78455;SHT31;67751;51.986;5.696;2024-02-16T12:56:50;14.2;79.8
78455;SHT31;67751;51.986;5.696;2024-02-16T12:59:20;14.2;79.7
78455;SHT31;67751;51.986;5.696;2024-02-16T13:01:50;14.1;79.7
78455;SHT31;67751;51.986;5.696;2024-02-16T13:04:20;14.1;79.9
78455;SHT31;67751;51.986;5.696;2024-02-16T13:06:50;14.1;79.8
78455;SHT31;67751;51.986;5.696;2024-02-16T13:09:20;14.0;80.1
78455;SHT31;67751;51.986;5.696;2024-02-16T13:11:50;14.0;80.2
78455;SHT31;67751;51.986;5.696;2024-02-16T13:14:22;14.0;80.3
78455;SHT31;67751;51.986;5.696;2024-02-16T13:16:51;14.0;80.4
78455;SHT31;67751;51.986;5.696;2024-02-16T13:19:21;14.0;80.4
78455;SHT31;67751;51.986;5.696;2024-02-16T13:21:51;14.0;80.6
78455;SHT31;67751;51.986;5.696;2024-02-16T13:24:21;14.0;80.8
78455;SHT31;67751;51.986;5.696;2024-02-16T13:26:50;14.0;80.9
78455;SHT31;67751;51.986;5.696;2024-02-16T13:29:20;14.0;81.0
78455;SHT31;67751;51.986;5.696;2024-02-16T13:31:50;14.0;80.8
78455;SHT31;67751;51.986;5.696;2024-02-16T13:34:19;14.1;80.7
78455;SHT31;67751;51.986;5.696;2024-02-16T13:36:49;14.1;80.8
78455;SHT31;67751;51.986;5.696;2024-02-16T13:39:19;14.1;80.8
78455;SHT31;67751;51.986;5.696;2024-02-16T13:41:50;14.1;80.8
78455;SHT31;67751;51.986;5.696;2024-02-16T13:44:20;14.1;80.3
78455;SHT31;67751;51.986;5.696;2024-02-16T13:46:50;14.1;80.3
78455;SHT31;67751;51.986;5.696;2024-02-16T13:49:20;14.2;80.3
78455;SHT31;67751;51.986;5.696;2024-02-16T13:51:50;14.2;80.3
78455;SHT31;67751;51.986;5.696;2024-02-16T13:54:19;14.2;80.4
78455;SHT31;67751;51.986;5.696;2024-02-16T13:56:51;14.2;80.4
78455;SHT31;67751;51.986;5.696;2024-02-16T13:59:20;14.2;80.4
78455;SHT31;67751;51.986;5.696;2024-02-16T14:01:50;14.2;80.2
78455;SHT31;67751;51.986;5.696;2024-02-16T14:04:20;14.3;80.0
78455;SHT31;67751;51.986;5.696;2024-02-16T14:06:51;14.3;79.9
78455;SHT31;67751;51.986;5.696;2024-02-16T14:09:21;14.3;79.7
78455;SHT31;67751;51.986;5.696;2024-02-16T14:11:51;14.3;79.6
78455;SHT31;67751;51.986;5.696;2024-02-16T14:14:25;14.3;78.5
78455;SHT31;67751;51.986;5.696;2024-02-16T14:16:55;14.3;78.9
78455;SHT31;67751;51.986;5.696;2024-02-16T14:19:24;14.3;78.4
78455;SHT31;67751;51.986;5.696;2024-02-16T14:21:54;14.3;78.7
78455;SHT31;67751;51.986;5.696;2024-02-16T14:24:24;14.3;79.3
78455;SHT31;67751;51.986;5.696;2024-02-16T14:26:54;14.3;78.6
78455;SHT31;67751;51.986;5.696;2024-02-16T14:29:24;14.3;78.7
78455;SHT31;67751;51.986;5.696;2024-02-16T14:31:56;14.3;79.0
78455;SHT31;67751;51.986;5.696;2024-02-16T14:34:26;14.3;78.7
78455;SHT31;67751;51.986;5.696;2024-02-16T14:36:55;14.3;78.3
78455;SHT31;67751;51.986;5.696;2024-02-16T14:39:25;14.3;78.7
78455;SHT31;67751;51.986;5.696;2024-02-16T14:41:54;14.3;78.7
78455;SHT31;67751;51.986;5.696;2024-02-16T14:44:24;14.3;78.5
78455;SHT31;67751;51.986;5.696;2024-02-16T14:46:53;14.3;78.5
78455;SHT31;67751;51.986;5.696;2024-02-16T14:49:24;14.3;78.9
78455;SHT31;67751;51.986;5.696;2024-02-16T14:51:54;14.3;78.4
78455;SHT31;67751;51.986;5.696;2024-02-16T14:54:24;14.3;78.4
78455;SHT31;67751;51.986;5.696;2024-02-16T14:56:54;14.3;78.1
78455;SHT31;67751;51.986;5.696;2024-02-16T14:59:24;14.3;78.0
78455;SHT31;67751;51.986;5.696;2024-02-16T15:01:54;14.3;77.7
78455;SHT31;67751;51.986;5.696;2024-02-16T15:04:23;14.3;78.4
78455;SHT31;67751;51.986;5.696;2024-02-16T15:06:53;14.3;78.8
78455;SHT31;67751;51.986;5.696;2024-02-16T15:09:23;14.3;78.8
78455;SHT31;67751;51.986;5.696;2024-02-16T15:11:52;14.3;78.9
78455;SHT31;67751;51.986;5.696;2024-02-16T15:14:22;14.3;79.0
78455;SHT31;67751;51.986;5.696;2024-02-16T15:16:51;14.3;78.7
78455;SHT31;67751;51.986;5.696;2024-02-16T15:19:21;14.3;78.0
78455;SHT31;67751;51.986;5.696;2024-02-16T15:21:53;14.3;78.0
78455;SHT31;67751;51.986;5.696;2024-02-16T15:24:22;14.3;77.5
78455;SHT31;67751;51.986;5.696;2024-02-16T15:26:52;14.3;77.4
78455;SHT31;67751;51.986;5.696;2024-02-16T15:29:21;14.3;78.0
78455;SHT31;67751;51.986;5.696;2024-02-16T15:31:51;14.3;78.1
78455;SHT31;67751;51.986;5.696;2024-02-16T15:34:23;14.3;77.9
78455;SHT31;67751;51.986;5.696;2024-02-16T15:36:53;14.3;77.8
78455;SHT31;67751;51.986;5.696;2024-02-16T15:39:25;14.3;77.6
78455;SHT31;67751;51.986;5.696;2024-02-16T15:41:55;14.3;76.3
78455;SHT31;67751;51.986;5.696;2024-02-16T15:44:26;14.3;76.0
78455;SHT31;67751;51.986;5.696;2024-02-16T15:46:57;14.3;76.2
78455;SHT31;67751;51.986;5.696;2024-02-16T15:49:27;14.3;77.0
78455;SHT31;67751;51.986;5.696;2024-02-16T15:51:57;14.3;77.3
78455;SHT31;67751;51.986;5.696;2024-02-16T15:54:26;14.3;76.0
78455;SHT31;67751;51.986;5.696;2024-02-16T15:56:56;14.3;76.2
78455;SHT31;67751;51.986;5.696;2024-02-16T15:59:25;14.3;76.4
78455;SHT31;67751;51.986;5.696;2024-02-16T16:01:55;14.3;76.7
78455;SHT31;67751;51.986;5.696;2024-02-16T16:04:25;14.2;76.9
78455;SHT31;67751;51.986;5.696;2024-02-16T16:06:54;14.2;77.2
78455;SHT31;67751;51.986;5.696;2024-02-16T16:09:24;14.2;77.4
78455;SHT31;67751;51.986;5.696;2024-02-16T16:11:54;14.2;77.4
78455;SHT31;67751;51.986;5.696;2024-02-16T16:14:24;14.2;77.6
78455;SHT31;67751;51.986;5.696;2024-02-16T16:16:54;14.2;76.2
78455;SHT31;67751;51.986;5.696;2024-02-16T16:19:23;14.2;77.1
78455;SHT31;67751;51.986;5.696;2024-02-16T16:21:53;14.2;77.3